createdAt,value
2024-01-11T00:01:00.440Z,27.47
2024-01-11T00:03:30.394Z,27.67
2024-01-11T00:06:06.658Z,27.67
2024-01-11T00:08:35.525Z,27.63
2024-01-11T00:11:05.647Z,27.60
2024-01-11T00:13:33.976Z,29.17
2024-01-11T00:16:02.321Z,27.57
2024-01-11T00:18:31.988Z,27.70
2024-01-11T00:21:04.021Z,29.77
2024-01-11T00:23:38.211Z,28.03
2024-01-11T00:26:09.035Z,29.17
2024-01-11T00:28:37.141Z,29.83
2024-01-11T00:31:08.929Z,29.10
2024-01-11T00:33:38.436Z,29.03
2024-01-11T00:36:10.209Z,29.20
2024-01-11T00:38:43.924Z,27.87
2024-01-11T00:41:13.197Z,27.80
2024-01-11T00:43:48.438Z,27.77
2024-01-11T00:46:18.331Z,27.33
2024-01-11T00:48:46.599Z,29.60
2024-01-11T00:51:16.200Z,26.70
2024-01-11T00:53:46.007Z,28.80
2024-01-11T00:56:22.826Z,27.43
2024-01-11T00:59:04.793Z,28.47
2024-01-11T01:01:35.857Z,27.87
2024-01-11T01:04:04.300Z,27.03
2024-01-11T01:06:35.673Z,27.67
2024-01-11T01:09:10.175Z,27.60
2024-01-11T01:11:43.761Z,27.50
2024-01-11T01:14:13.167Z,28.67
2024-01-11T01:16:41.077Z,26.07
2024-01-11T01:19:10.077Z,26.67
2024-01-11T01:21:40.875Z,28.03
2024-01-11T01:24:10.708Z,26.63
2024-01-11T01:26:41.153Z,26.33
2024-01-11T01:29:09.495Z,27.73
2024-01-11T01:31:39.806Z,27.70
2024-01-11T01:34:13.968Z,26.80
2024-01-11T01:36:44.337Z,27.17
2024-01-11T01:39:12.165Z,27.10
2024-01-11T01:41:42.297Z,25.60
2024-01-11T01:44:10.341Z,26.63
2024-01-11T01:46:39.577Z,27.33
2024-01-11T01:49:10.835Z,25.67
2024-01-11T01:51:39.238Z,28.10
2024-01-11T01:54:12.742Z,26.70
2024-01-11T01:56:41.175Z,27.50
2024-01-11T01:59:12.542Z,27.33
2024-01-11T02:01:42.081Z,26.23
2024-01-11T02:04:18.308Z,27.23
2024-01-11T02:06:51.988Z,25.70
2024-01-11T02:09:21.828Z,27.90
2024-01-11T02:11:50.594Z,28.03
2024-01-11T02:14:26.596Z,28.07
2024-01-11T02:16:56.546Z,29.43
2024-01-11T02:19:24.686Z,27.80
2024-01-11T02:22:00.094Z,28.53
2024-01-11T02:24:29.537Z,26.53
2024-01-11T02:27:04.193Z,27.53
2024-01-11T02:29:38.748Z,26.57
2024-01-11T02:32:16.967Z,26.77
2024-01-11T02:34:45.911Z,25.90
2024-01-11T02:37:14.338Z,24.93
2024-01-11T02:39:55.550Z,27.07
2024-01-11T02:42:26.518Z,26.17
2024-01-11T02:44:54.323Z,27.20
2024-01-11T02:47:25.206Z,26.27
2024-01-11T02:49:58.362Z,27.70
2024-01-11T02:52:28.699Z,27.50
2024-01-11T02:55:00.295Z,28.53
2024-01-11T02:57:38.351Z,26.93
2024-01-11T03:00:09.803Z,27.57
2024-01-11T03:02:40.194Z,26.77
2024-01-11T03:05:11.264Z,27.00
2024-01-11T03:07:41.566Z,26.23
2024-01-11T03:10:13.499Z,27.43
2024-01-11T03:12:43.929Z,26.40
2024-01-11T03:15:13.744Z,27.47
2024-01-11T03:17:42.557Z,26.83
2024-01-11T03:20:11.731Z,26.80
2024-01-11T03:22:47.102Z,27.87
2024-01-11T03:25:19.466Z,27.70
2024-01-11T03:27:48.005Z,26.60
2024-01-11T03:30:17.694Z,28.10
2024-01-11T03:32:46.420Z,26.07
2024-01-11T03:35:15.846Z,26.00
2024-01-11T03:37:46.190Z,25.97
2024-01-11T03:40:16.307Z,28.77
2024-01-11T03:42:52.371Z,26.87
2024-01-11T03:45:21.908Z,26.23
2024-01-11T03:47:50.605Z,28.30
2024-01-11T03:50:18.628Z,26.63
2024-01-11T03:52:46.539Z,27.90
2024-01-11T03:55:21.810Z,28.03
2024-01-11T03:57:51.716Z,27.47
2024-01-11T04:00:21.077Z,27.53
2024-01-11T04:02:50.942Z,28.77
2024-01-11T04:05:19.500Z,26.07
2024-01-11T04:07:49.509Z,26.07
2024-01-11T04:10:22.005Z,28.47
2024-01-11T04:12:50.260Z,26.07
2024-01-11T04:15:21.809Z,28.70
2024-01-11T04:17:53.766Z,27.90
2024-01-11T04:20:25.319Z,27.87
2024-01-11T04:22:56.680Z,26.93
2024-01-11T04:25:26.137Z,26.17
2024-01-11T04:27:57.852Z,27.67
2024-01-11T04:30:27.203Z,27.37
2024-01-11T04:32:58.174Z,27.00
2024-01-11T04:35:27.770Z,27.83
2024-01-11T04:37:55.851Z,27.83
2024-01-11T04:40:27.320Z,26.80
2024-01-11T04:42:56.659Z,27.57
2024-01-11T04:45:24.436Z,26.97
2024-01-11T04:47:53.534Z,29.60
2024-01-11T04:50:23.111Z,27.07
2024-01-11T04:52:51.410Z,28.33
2024-01-11T04:55:19.730Z,27.50
2024-01-11T04:57:49.661Z,28.30
2024-01-11T05:00:19.637Z,27.73
2024-01-11T05:02:47.874Z,28.47
2024-01-11T05:05:16.470Z,27.20
2024-01-11T05:07:46.489Z,30.10
2024-01-11T05:10:15.698Z,27.37
2024-01-11T05:12:44.568Z,28.53
2024-01-11T05:15:14.823Z,27.97
2024-01-11T05:17:44.254Z,26.67
2024-01-11T05:20:13.011Z,27.13
2024-01-11T05:22:41.962Z,28.23
2024-01-11T05:25:10.660Z,28.80
2024-01-11T05:27:41.458Z,30.00
2024-01-11T05:30:11.948Z,26.93
2024-01-11T05:32:44.112Z,26.33
2024-01-11T05:35:12.868Z,27.67
2024-01-11T05:37:40.979Z,27.63
2024-01-11T05:40:11.461Z,27.80
2024-01-11T05:42:39.307Z,27.00
2024-01-11T05:45:09.076Z,28.47
2024-01-11T05:47:39.555Z,28.73
2024-01-11T05:50:12.986Z,27.23
2024-01-11T05:52:41.859Z,27.87
2024-01-11T05:55:10.364Z,27.33
2024-01-11T05:57:38.287Z,26.40
2024-01-11T06:00:07.588Z,27.73
2024-01-11T06:02:35.445Z,28.77
2024-01-11T06:05:03.531Z,28.17
2024-01-11T06:07:34.207Z,28.00
2024-01-11T06:10:04.014Z,26.00
2024-01-11T06:12:32.322Z,27.90
2024-01-11T06:15:01.300Z,29.30
2024-01-11T06:17:29.702Z,28.30
2024-01-11T06:19:58.092Z,27.97
2024-01-11T06:22:26.233Z,27.50
2024-01-11T06:24:55.834Z,30.93
2024-01-11T06:27:23.774Z,28.37
2024-01-11T06:29:52.458Z,27.60
2024-01-11T06:32:21.009Z,27.20
2024-01-11T06:34:49.272Z,29.13
2024-01-11T06:37:17.751Z,28.70
2024-01-11T06:39:46.714Z,29.53
2024-01-11T06:42:16.427Z,27.80
2024-01-11T06:44:44.218Z,29.20
2024-01-11T06:47:12.225Z,28.37
2024-01-11T06:49:40.915Z,28.50
2024-01-11T06:52:08.908Z,28.40
2024-01-11T06:54:36.830Z,27.50
2024-01-11T06:57:04.948Z,30.37
2024-01-11T06:59:34.211Z,28.47
2024-01-11T07:02:04.079Z,28.77
2024-01-11T07:04:34.663Z,28.33
2024-01-11T07:07:05.793Z,29.13
2024-01-11T07:09:33.711Z,28.97
2024-01-11T07:12:02.688Z,28.53
2024-01-11T07:14:31.119Z,27.03
2024-01-11T07:17:00.397Z,28.43
2024-01-11T07:19:28.600Z,29.00
2024-01-11T07:21:56.737Z,30.90
2024-01-11T07:24:24.572Z,28.67
2024-01-11T07:26:52.436Z,29.63
2024-01-11T07:29:20.392Z,29.60
2024-01-11T07:31:48.308Z,29.90
2024-01-11T07:34:19.021Z,29.23
2024-01-11T07:36:46.806Z,28.03
2024-01-11T07:39:15.075Z,30.30
2024-01-11T07:41:43.138Z,29.50
2024-01-11T07:44:11.155Z,30.70
2024-01-11T07:46:42.646Z,30.20
2024-01-11T07:49:19.133Z,31.13
2024-01-11T07:51:46.946Z,29.90
2024-01-11T07:54:14.866Z,29.23
2024-01-11T07:56:43.797Z,28.03
2024-01-11T07:59:15.027Z,28.30
2024-01-11T08:01:43.445Z,28.97
2024-01-11T08:04:11.498Z,28.57
2024-01-11T08:06:41.010Z,27.60
2024-01-11T08:09:11.641Z,27.90
2024-01-11T08:11:41.861Z,27.20
2024-01-11T08:14:11.751Z,26.43
2024-01-11T08:16:40.135Z,26.47
2024-01-11T08:19:08.055Z,25.77
2024-01-11T08:21:36.014Z,26.27
2024-01-11T08:24:05.609Z,24.63
2024-01-11T08:26:33.557Z,25.60
2024-01-11T08:29:01.620Z,26.70
2024-01-11T08:31:29.560Z,23.47
2024-01-11T08:33:57.553Z,23.87
2024-01-11T08:36:25.383Z,23.47
2024-01-11T08:38:53.305Z,23.27
2024-01-11T08:41:22.463Z,23.13
2024-01-11T08:43:50.488Z,21.23
2024-01-11T08:46:25.952Z,22.80
2024-01-11T08:48:54.167Z,24.23
2024-01-11T08:51:22.261Z,24.07
2024-01-11T08:53:50.335Z,23.57
2024-01-11T08:56:18.790Z,23.03
2024-01-11T08:58:49.312Z,23.60
2024-01-11T09:01:17.187Z,22.37
2024-01-11T09:03:45.034Z,22.27
2024-01-11T09:06:14.084Z,23.03
2024-01-11T09:08:43.311Z,21.97
2024-01-11T09:11:11.661Z,22.97
2024-01-11T09:13:41.829Z,21.07
2024-01-11T09:16:11.480Z,21.13
2024-01-11T09:18:41.976Z,19.93
2024-01-11T09:21:11.206Z,19.77
2024-01-11T09:23:39.954Z,19.97
2024-01-11T09:26:07.782Z,20.47
2024-01-11T09:28:35.652Z,19.83
2024-01-11T09:31:03.643Z,21.30
2024-01-11T09:33:33.563Z,20.43
2024-01-11T09:36:01.795Z,21.30
2024-01-11T09:38:30.069Z,20.70
2024-01-11T09:41:08.751Z,20.30
2024-01-11T09:43:37.863Z,20.63
2024-01-11T09:46:07.555Z,20.67
2024-01-11T09:48:38.474Z,21.13
2024-01-11T09:51:11.133Z,21.67
2024-01-11T09:53:40.826Z,20.70
2024-01-11T09:56:24.892Z,20.43
2024-01-11T09:58:53.456Z,20.47
2024-01-11T10:01:21.426Z,20.10
2024-01-11T10:03:50.928Z,20.37
2024-01-11T10:06:19.798Z,19.60
2024-01-11T10:08:47.769Z,20.13
2024-01-11T10:11:15.582Z,21.17
2024-01-11T10:13:43.610Z,21.80
2024-01-11T10:16:14.832Z,21.17
2024-01-11T10:18:43.548Z,20.50
2024-01-11T10:21:13.136Z,20.73
2024-01-11T10:23:41.674Z,21.13
2024-01-11T10:26:09.800Z,20.57
2024-01-11T10:28:39.074Z,19.80
2024-01-11T10:31:08.211Z,20.77
2024-01-11T10:33:37.244Z,21.07
2024-01-11T10:36:06.552Z,20.97
2024-01-11T10:38:39.569Z,19.67
2024-01-11T10:41:09.414Z,19.63
2024-01-11T10:43:39.860Z,20.37
2024-01-11T10:46:09.442Z,20.60
2024-01-11T10:48:41.264Z,19.73
2024-01-11T10:51:13.732Z,20.13
2024-01-11T10:53:48.515Z,20.80
2024-01-11T10:56:18.321Z,20.73
2024-01-11T10:58:47.470Z,20.50
2024-01-11T11:01:16.037Z,20.50
2024-01-11T11:03:46.055Z,19.87
2024-01-11T11:06:14.676Z,20.47
2024-01-11T11:08:46.013Z,18.17
2024-01-11T11:11:15.038Z,16.83
2024-01-11T11:13:44.042Z,18.47
2024-01-11T11:16:11.795Z,18.93
2024-01-11T11:18:39.778Z,18.13
2024-01-11T11:21:11.883Z,16.80
2024-01-11T11:23:40.380Z,16.90
2024-01-11T11:26:16.416Z,16.43
2024-01-11T11:28:44.683Z,16.87
2024-01-11T11:31:13.630Z,18.97
2024-01-11T11:33:43.044Z,17.90
2024-01-11T11:36:15.005Z,17.97
2024-01-11T11:38:43.823Z,18.90
2024-01-11T11:41:14.198Z,18.40
2024-01-11T11:43:42.476Z,18.23
2024-01-11T11:46:10.622Z,17.73
2024-01-11T11:49:00.014Z,16.60
2024-01-11T11:51:29.784Z,18.00
2024-01-11T11:53:59.619Z,17.53
2024-01-11T11:56:30.720Z,17.87
2024-01-11T11:58:59.353Z,17.67
2024-01-11T12:01:27.436Z,16.70
2024-01-11T12:03:57.979Z,16.53
2024-01-11T12:06:29.169Z,16.20
2024-01-11T12:08:58.872Z,15.90
2024-01-11T12:11:28.686Z,16.13
2024-01-11T12:13:58.772Z,15.97
2024-01-11T12:16:26.991Z,15.77
2024-01-11T12:18:55.860Z,14.93
2024-01-11T12:21:23.943Z,15.60
2024-01-11T12:23:51.972Z,16.07
2024-01-11T12:26:23.867Z,15.50
2024-01-11T12:28:54.067Z,14.90
2024-01-11T12:31:24.798Z,15.63
2024-01-11T12:33:54.027Z,15.90
2024-01-11T12:36:23.114Z,16.33
2024-01-11T12:38:53.238Z,16.07
2024-01-11T12:41:23.809Z,15.83
2024-01-11T12:43:53.981Z,16.17
2024-01-11T12:46:24.525Z,15.90
2024-01-11T12:48:53.659Z,16.13
2024-01-11T12:51:26.214Z,16.53
2024-01-11T12:53:54.384Z,15.70
2024-01-11T12:56:24.157Z,16.50
2024-01-11T12:59:08.218Z,15.27
2024-01-11T13:01:37.830Z,15.40
2024-01-11T13:04:06.633Z,16.27
2024-01-11T13:06:35.529Z,14.80
2024-01-11T13:09:04.266Z,16.07
2024-01-11T13:11:32.440Z,14.27
2024-01-11T13:14:05.985Z,14.70
2024-01-11T13:16:34.139Z,14.47
2024-01-11T13:19:02.336Z,13.83
2024-01-11T13:21:31.085Z,14.47
2024-01-11T13:23:59.087Z,15.33
2024-01-11T13:26:26.899Z,15.03
2024-01-11T13:28:54.786Z,14.47
2024-01-11T13:31:23.998Z,15.87
2024-01-11T13:33:53.100Z,15.20
2024-01-11T13:36:21.035Z,15.73
2024-01-11T13:38:48.933Z,15.83
2024-01-11T13:41:17.254Z,14.90
2024-01-11T13:43:45.290Z,15.87
2024-01-11T13:46:17.701Z,15.50
2024-01-11T13:48:47.408Z,16.37
2024-01-11T13:51:15.533Z,15.57
2024-01-11T13:53:43.843Z,15.90
2024-01-11T13:56:12.028Z,14.80
2024-01-11T13:58:40.361Z,15.53
2024-01-11T14:01:09.062Z,14.97
2024-01-11T14:03:36.976Z,15.23
2024-01-11T14:06:07.540Z,16.20
2024-01-11T14:08:35.531Z,14.87
2024-01-11T14:11:03.431Z,15.33
2024-01-11T14:13:31.284Z,14.67
2024-01-11T14:15:59.131Z,14.90
2024-01-11T14:18:27.440Z,14.77
2024-01-11T14:20:55.503Z,13.63
2024-01-11T14:23:24.770Z,15.13
2024-01-11T14:25:52.617Z,14.63
2024-01-11T14:28:20.361Z,15.03
2024-01-11T14:30:48.303Z,14.30
2024-01-11T14:33:16.308Z,14.23
2024-01-11T14:35:44.348Z,14.50
2024-01-11T14:38:12.196Z,14.73
2024-01-11T14:40:42.594Z,14.33
2024-01-11T14:43:10.626Z,16.33
2024-01-11T14:45:38.558Z,14.97
2024-01-11T14:48:07.193Z,15.63
2024-01-11T14:50:35.199Z,15.30
2024-01-11T14:53:04.737Z,14.93
2024-01-11T14:55:33.444Z,15.13
2024-01-11T14:58:02.867Z,14.23
2024-01-11T15:00:31.062Z,14.83
2024-01-11T15:02:59.292Z,15.50
2024-01-11T15:05:27.475Z,16.13
2024-01-11T15:07:56.531Z,15.23
2024-01-11T15:10:24.531Z,14.57
2024-01-11T15:12:52.619Z,15.20
2024-01-11T15:15:22.240Z,14.00
2024-01-11T15:17:50.232Z,15.37
2024-01-11T15:20:18.625Z,14.90
2024-01-11T15:22:46.776Z,15.10
2024-01-11T15:25:15.086Z,13.90
2024-01-11T15:27:43.004Z,15.07
2024-01-11T15:30:13.313Z,14.83
2024-01-11T15:32:43.160Z,14.87
2024-01-11T15:35:13.630Z,14.90
2024-01-11T15:37:42.478Z,14.33
2024-01-11T15:40:11.657Z,14.60
2024-01-11T15:42:40.108Z,14.57
2024-01-11T15:45:09.318Z,15.07
2024-01-11T15:47:37.462Z,14.70
2024-01-11T15:50:11.495Z,13.90
2024-01-11T15:52:40.375Z,14.87
2024-01-11T15:55:10.388Z,14.90
2024-01-11T15:57:38.767Z,14.57
2024-01-11T16:00:11.734Z,14.53
2024-01-11T16:02:41.921Z,15.13
2024-01-11T16:05:12.071Z,15.30
2024-01-11T16:07:41.275Z,14.70
2024-01-11T16:10:11.001Z,14.97
2024-01-11T16:12:40.165Z,14.23
2024-01-11T16:15:08.725Z,16.70
2024-01-11T16:17:37.011Z,15.93
2024-01-11T16:20:06.207Z,15.60
2024-01-11T16:22:36.270Z,16.60
2024-01-11T16:25:04.390Z,17.10
2024-01-11T16:27:32.673Z,16.90
2024-01-11T16:30:02.976Z,17.17
2024-01-11T16:32:32.491Z,16.87
2024-01-11T16:35:00.690Z,16.80
2024-01-11T16:37:28.945Z,17.30
2024-01-11T16:39:58.578Z,16.93
2024-01-11T16:42:27.685Z,17.33
2024-01-11T16:44:55.740Z,17.53
2024-01-11T16:47:26.774Z,16.67
2024-01-11T16:49:55.301Z,16.53
2024-01-11T16:52:23.047Z,18.63
2024-01-11T16:54:52.463Z,16.70
2024-01-11T16:57:22.028Z,17.80
2024-01-11T16:59:51.281Z,17.73
2024-01-11T17:02:19.941Z,19.10
2024-01-11T17:04:47.913Z,18.80
2024-01-11T17:07:15.844Z,17.70
2024-01-11T17:09:44.158Z,19.70
2024-01-11T17:12:12.069Z,18.63
2024-01-11T17:14:44.400Z,18.90
2024-01-11T17:17:12.314Z,20.30
2024-01-11T17:19:40.167Z,19.00
2024-01-11T17:22:09.686Z,19.57
2024-01-11T17:24:38.860Z,19.83
2024-01-11T17:27:09.529Z,19.53
2024-01-11T17:29:46.491Z,18.67
2024-01-11T17:32:15.034Z,19.93
2024-01-11T17:34:43.062Z,20.13
2024-01-11T17:37:11.040Z,20.13
2024-01-11T17:39:39.123Z,19.30
2024-01-11T17:42:07.513Z,20.53
2024-01-11T17:44:38.230Z,19.47
2024-01-11T17:47:07.770Z,21.03
2024-01-11T17:49:38.207Z,20.30
2024-01-11T17:52:06.701Z,18.97
2024-01-11T17:54:34.493Z,21.00
2024-01-11T17:57:02.422Z,18.83
2024-01-11T17:59:30.345Z,19.73
2024-01-11T18:02:01.680Z,19.13
2024-01-11T18:04:32.471Z,20.30
2024-01-11T18:07:01.010Z,20.03
2024-01-11T18:09:29.803Z,20.53
2024-01-11T18:11:59.379Z,19.17
2024-01-11T18:14:27.491Z,20.63
2024-01-11T18:16:55.480Z,21.30
2024-01-11T18:19:25.029Z,20.97
2024-01-11T18:22:01.105Z,20.77
2024-01-11T18:24:29.296Z,21.50
2024-01-11T18:26:58.497Z,23.73
2024-01-11T18:29:27.402Z,21.63
2024-01-11T18:32:09.233Z,21.47
2024-01-11T18:34:37.108Z,21.60
2024-01-11T18:37:06.455Z,34.17
2024-01-11T18:39:35.129Z,32.27
2024-01-11T18:42:03.473Z,30.00
2024-01-11T18:44:31.609Z,26.57
2024-01-11T18:47:00.612Z,24.03
2024-01-11T18:49:28.557Z,23.80
2024-01-11T18:51:56.793Z,24.10
2024-01-11T18:54:27.916Z,24.53
2024-01-11T18:56:56.053Z,24.33
2024-01-11T18:59:24.806Z,24.43
2024-01-11T19:01:52.852Z,25.33
2024-01-11T19:04:20.856Z,25.50
2024-01-11T19:06:51.250Z,26.20
2024-01-11T19:09:20.118Z,25.30
2024-01-11T19:11:51.782Z,25.00
2024-01-11T19:14:22.553Z,25.17
2024-01-11T19:16:50.407Z,25.07
2024-01-11T19:19:18.370Z,26.57
2024-01-11T19:21:46.783Z,24.57
2024-01-11T19:24:14.785Z,24.60
2024-01-11T19:26:43.606Z,24.97
2024-01-11T19:29:13.065Z,24.90
2024-01-11T19:31:41.396Z,29.97
2024-01-11T19:34:09.322Z,26.37
2024-01-11T19:36:41.659Z,29.90
2024-01-11T19:39:10.576Z,26.03
2024-01-11T19:41:38.418Z,26.83
2024-01-11T19:44:09.617Z,24.93
2024-01-11T19:46:39.276Z,25.50
2024-01-11T19:49:07.527Z,25.17
2024-01-11T19:51:35.822Z,23.97
2024-01-11T19:54:03.668Z,25.93
2024-01-11T19:56:33.613Z,25.37
2024-01-11T19:59:04.315Z,25.63
2024-01-11T20:01:32.271Z,26.07
2024-01-11T20:04:01.959Z,27.20
2024-01-11T20:06:29.866Z,28.10
2024-01-11T20:08:58.100Z,26.70
2024-01-11T20:11:26.035Z,30.37
2024-01-11T20:13:55.201Z,29.63
2024-01-11T20:16:26.890Z,32.73
2024-01-11T20:18:59.094Z,28.47
2024-01-11T20:21:28.909Z,27.20
2024-01-11T20:23:58.905Z,28.13
2024-01-11T20:26:30.505Z,27.83
2024-01-11T20:29:07.607Z,28.30
2024-01-11T20:31:38.409Z,27.97
2024-01-11T20:34:10.486Z,28.13
2024-01-11T20:36:42.199Z,29.37
2024-01-11T20:39:12.992Z,28.77
2024-01-11T20:41:44.191Z,28.50
2024-01-11T20:44:14.152Z,27.13
2024-01-11T20:46:42.610Z,29.77
2024-01-11T20:49:14.901Z,28.20
2024-01-11T20:51:48.565Z,27.73
2024-01-11T20:54:17.558Z,28.13
2024-01-11T20:56:50.670Z,28.40
2024-01-11T20:59:21.201Z,28.40
2024-01-11T21:01:49.722Z,29.63
2024-01-11T21:04:25.811Z,30.77
2024-01-11T21:07:01.046Z,30.57
2024-01-11T21:09:32.763Z,30.03
2024-01-11T21:12:04.883Z,29.77
2024-01-11T21:14:36.951Z,31.43
2024-01-11T21:17:06.545Z,32.33
2024-01-11T21:19:35.663Z,30.53
2024-01-11T21:22:18.246Z,32.13
2024-01-11T21:24:57.394Z,32.60
2024-01-11T21:27:27.724Z,31.53
2024-01-11T21:30:03.331Z,32.67
2024-01-11T21:32:35.803Z,30.43
2024-01-11T21:35:07.781Z,31.60
2024-01-11T21:37:38.869Z,31.90
2024-01-11T21:40:09.466Z,32.23
2024-01-11T21:42:41.294Z,32.03
2024-01-11T21:45:14.088Z,32.90
2024-01-11T21:47:50.355Z,30.40
2024-01-11T21:50:29.930Z,31.87
2024-01-11T21:53:12.690Z,32.17
2024-01-11T21:55:44.822Z,31.50
2024-01-11T21:58:13.537Z,30.93
2024-01-11T22:00:46.527Z,31.37
2024-01-11T22:03:16.951Z,33.70
2024-01-11T22:05:54.552Z,31.63
2024-01-11T22:08:25.397Z,34.30
2024-01-11T22:11:00.996Z,31.67
2024-01-11T22:13:38.450Z,32.13
2024-01-11T22:16:10.520Z,34.03
2024-01-11T22:18:40.545Z,32.20
2024-01-11T22:21:09.338Z,33.30
2024-01-11T22:23:38.986Z,32.17
2024-01-11T22:26:07.158Z,33.90
2024-01-11T22:28:37.425Z,35.37
2024-01-11T22:31:13.389Z,34.13
2024-01-11T22:33:43.175Z,34.40
2024-01-11T22:36:14.847Z,34.17
2024-01-11T22:38:48.514Z,34.47
2024-01-11T22:41:20.562Z,34.23
2024-01-11T22:43:51.865Z,34.47
2024-01-11T22:46:20.344Z,34.03
2024-01-11T22:48:51.849Z,34.20
2024-01-11T22:51:21.065Z,36.37
2024-01-11T22:53:52.175Z,33.60
2024-01-11T22:56:23.957Z,34.77
2024-01-11T22:58:52.035Z,32.67
2024-01-11T23:01:20.377Z,34.23
2024-01-11T23:03:48.812Z,36.77
2024-01-11T23:06:19.659Z,34.33
2024-01-11T23:08:47.854Z,35.77
2024-01-11T23:11:19.595Z,36.60
2024-01-11T23:13:52.629Z,35.33
2024-01-11T23:16:20.482Z,34.90
2024-01-11T23:18:50.579Z,34.00
2024-01-11T23:21:19.051Z,33.53
2024-01-11T23:23:50.335Z,32.07
2024-01-11T23:26:22.200Z,33.40
2024-01-11T23:28:56.068Z,31.40
2024-01-11T23:31:26.103Z,29.57
2024-01-11T23:33:58.458Z,30.07
2024-01-11T23:36:30.443Z,31.10
2024-01-11T23:38:59.795Z,30.10
2024-01-11T23:41:31.898Z,29.60
2024-01-11T23:44:02.586Z,30.00
2024-01-11T23:46:32.856Z,29.27
2024-01-11T23:49:00.881Z,28.27
2024-01-11T23:51:30.164Z,28.87
2024-01-11T23:53:59.871Z,28.67
2024-01-11T23:56:34.883Z,29.73
2024-01-11T23:59:03.064Z,29.10
